Time;durP1;ratioP1;P1;durP2;ratioP2;P2;SDS_P1;SDS_P2;PMS_P1;PMS_P2;Temp;Humidity;BMP_temperature;BMP_pressure;BME280_temperature;BME280_humidity;BME280_pressure;Samples;Min_cycle;Max_cycle;Signal;HPM_P1;HPM_P2
2022/09/01 00:01:14;;;;;;;3.67;1.83;;;;;;;17.95;52.67;100505.44;1760498;80;21742;-74
2022/09/01 00:03:40;;;;;;;5.77;1.90;;;;;;;17.90;53.05;100502.88;1759831;80;21713;-72
2022/09/01 00:06:09;;;;;;;5.67;1.90;;;;;;;17.86;53.15;100507.83;1761847;80;21707;-74
2022/09/01 00:08:36;;;;;;;3.87;1.70;;;;;;;17.82;53.26;100502.25;1763692;81;21727;-74
2022/09/01 00:11:03;;;;;;;3.60;1.90;;;;;;;17.81;53.44;100508.20;1763551;80;22156;-74
2022/09/01 00:13:32;;;;;;;3.77;2.00;;;;;;;17.81;53.59;100512.81;1763949;81;22186;-74
2022/09/01 00:16:02;;;;;;;4.50;1.80;;;;;;;17.80;53.69;100513.90;1763004;81;21730;-74
2022/09/01 00:18:31;;;;;;;4.50;2.30;;;;;;;17.78;53.74;100514.78;1762815;81;21686;-74
2022/09/01 00:20:59;;;;;;;4.03;1.90;;;;;;;17.74;53.92;100506.45;1760448;80;22194;-74
2022/09/01 00:23:26;;;;;;;4.40;2.00;;;;;;;17.72;53.70;100503.25;1758121;81;22310;-74
2022/09/01 00:25:53;;;;;;;4.77;2.10;;;;;;;17.73;54.06;100503.49;1760871;80;21724;-74
2022/09/01 00:28:20;;;;;;;4.07;1.97;;;;;;;17.75;54.25;100509.40;1760018;80;21684;-73
2022/09/01 00:30:47;;;;;;;3.43;1.80;;;;;;;17.76;54.45;100508.31;1760230;80;21649;-74
2022/09/01 00:33:14;;;;;;;4.50;1.83;;;;;;;17.77;54.56;100509.94;1760225;80;21676;-71
2022/09/01 00:35:40;;;;;;;4.97;2.27;;;;;;;17.78;54.76;100508.81;1760765;80;21877;-73
2022/09/01 00:38:07;;;;;;;4.03;1.90;;;;;;;17.81;54.88;100505.51;1760724;80;21710;-73
2022/09/01 00:40:34;;;;;;;5.93;2.00;;;;;;;17.84;54.96;100514.91;1760631;80;23062;-73
2022/09/01 00:43:01;;;;;;;3.20;1.67;;;;;;;17.86;55.03;100514.59;1728044;81;21782;-74
2022/09/01 00:45:30;;;;;;;3.03;1.87;;;;;;;17.89;55.11;100509.37;1760148;80;21709;-75
2022/09/01 00:47:57;;;;;;;5.00;1.90;;;;;;;17.93;55.20;100514.95;1760668;81;22118;-74
2022/09/01 00:50:31;;;;;;;4.20;2.10;;;;;;;17.97;55.17;100521.36;1762998;80;21692;-74
2022/09/01 00:52:57;;;;;;;3.63;2.10;;;;;;;17.99;55.12;100518.58;1760605;81;21673;-72
2022/09/01 00:55:31;;;;;;;5.00;2.00;;;;;;;18.01;55.03;100517.73;1761330;81;22144;-74
2022/09/01 00:57:58;;;;;;;3.87;2.07;;;;;;;17.99;54.94;100519.92;1759015;80;21725;-72
2022/09/01 01:00:29;;;;;;;5.73;1.80;;;;;;;17.99;54.88;100521.28;1760791;80;22215;-72
2022/09/01 01:02:56;;;;;;;5.07;2.20;;;;;;;17.98;54.77;100519.69;1759932;80;21684;-73
2022/09/01 01:05:26;;;;;;;4.10;2.10;;;;;;;17.95;54.80;100518.95;1758002;80;21724;-73
2022/09/01 01:07:54;;;;;;;3.55;1.87;;;;;;;17.96;54.84;100522.45;1761389;80;21784;-73
2022/09/01 01:10:21;;;;;;;3.47;1.93;;;;;;;17.95;54.79;100521.66;1759814;80;21266;-74
2022/09/01 01:12:50;;;;;;;3.40;1.70;;;;;;;17.95;54.79;100521.66;1760048;80;21739;-74
2022/09/01 01:15:17;;;;;;;3.97;1.97;;;;;;;17.97;54.79;100522.72;1757809;81;21685;-74
2022/09/01 01:17:44;;;;;;;3.43;1.93;;;;;;;17.98;54.69;100519.69;1760262;80;21705;-72
2022/09/01 01:23:16;;;;;;;3.30;1.97;;;;;;;18.02;54.72;100523.92;1760123;80;22270;-74
2022/09/01 01:25:56;;;;;;;4.37;2.20;;;;;;;18.04;54.72;100522.52;1760826;80;21752;-73
2022/09/01 01:28:30;;;;;;;5.00;2.07;;;;;;;18.05;54.60;100518.70;1760977;80;21832;-73
2022/09/01 01:31:01;;;;;;;6.33;2.50;;;;;;;18.06;54.45;100518.14;1732921;81;22298;-74
2022/09/01 01:33:40;;;;;;;4.00;2.20;;;;;;;18.06;54.40;100523.55;1760784;80;21725;-74
2022/09/01 01:36:06;;;;;;;4.27;2.03;;;;;;;18.05;54.29;100517.91;1759494;80;21805;-73
2022/09/01 01:38:34;;;;;;;3.73;1.70;;;;;;;18.04;54.46;100515.77;1759636;80;22148;-74
2022/09/01 01:41:05;;;;;;;3.27;2.10;;;;;;;18.04;54.40;100513.06;1762928;81;21709;-73
2022/09/01 01:43:30;;;;;;;4.27;2.07;;;;;;;18.05;54.46;100512.50;1761206;81;21767;-72
2022/09/01 01:46:01;;;;;;;4.60;2.27;;;;;;;18.03;54.39;100502.02;1760839;81;21795;-73
2022/09/01 01:48:28;;;;;;;4.17;2.17;;;;;;;18.03;54.30;100501.19;1763133;81;21922;-72
2022/09/01 01:50:59;;;;;;;3.83;2.20;;;;;;;17.98;54.22;100499.98;1764177;81;21739;-73
2022/09/01 01:53:24;;;;;;;4.00;2.37;;;;;;;17.92;54.34;100497.95;1763508;81;21046;-73
2022/09/01 01:55:51;;;;;;;4.50;2.03;;;;;;;17.92;54.34;100497.95;1764478;80;21045;-72
2022/09/01 01:58:20;;;;;;;3.87;2.20;;;;;;;17.93;54.38;100498.74;1763781;81;21719;-73
2022/09/01 02:00:49;;;;;;;5.17;2.20;;;;;;;17.88;54.52;100503.73;1764253;81;21668;-72
2022/09/01 02:03:19;;;;;;;4.60;1.97;;;;;;;17.83;54.50;100502.48;1763502;81;21704;-74
2022/09/01 02:05:48;;;;;;;3.77;2.07;;;;;;;17.79;54.51;100508.27;1764030;81;21668;-73
2022/09/01 02:08:17;;;;;;;3.53;2.00;;;;;;;17.75;54.59;100505.91;1763899;81;21696;-74
2022/09/01 02:10:46;;;;;;;3.47;2.00;;;;;;;17.71;54.77;100511.68;1764338;81;21645;-74
2022/09/01 02:13:15;;;;;;;4.27;1.90;;;;;;;17.64;54.87;100508.05;1764204;80;21680;-74
2022/09/01 02:15:52;;;;;;;6.73;2.40;;;;;;;17.59;55.25;100502.19;1764063;81;21720;-74
2022/09/01 02:18:25;;;;;;;5.83;2.40;;;;;;;17.58;55.36;100499.81;1763924;81;21712;-72
2022/09/01 02:20:57;;;;;;;4.57;2.20;;;;;;;17.53;55.58;100496.66;1763455;81;21653;-74
2022/09/01 02:23:23;;;;;;;3.40;1.90;;;;;;;17.51;55.54;100497.53;1763257;81;22651;-73
2022/09/01 02:25:53;;;;;;;4.10;2.40;;;;;;;17.47;55.74;100501.95;1764438;80;21648;-74
2022/09/01 02:28:21;;;;;;;4.17;2.00;;;;;;;17.42;55.59;100495.30;1763738;81;22148;-74
2022/09/01 02:30:53;;;;;;;3.10;1.80;;;;;;;17.31;55.59;100495.29;1764390;81;21712;-74
2022/09/01 02:33:20;;;;;;;;;;;;;;;17.31;55.59;100495.29;1766530;81;21524;-74
2022/09/01 02:35:52;;;;;;;4.43;2.20;;;;;;;17.26;55.50;100501.58;1764426;81;20460;-74
2022/09/01 02:38:19;;;;;;;3.80;2.30;;;;;;;17.26;55.50;100501.58;1764152;81;21699;-74
2022/09/01 02:40:47;;;;;;;3.83;1.90;;;;;;;17.25;55.54;100501.89;1764175;81;20995;-74
2022/09/01 02:43:18;;;;;;;4.10;2.00;;;;;;;17.24;55.60;100507.03;1763511;81;21692;-74
2022/09/01 02:45:45;;;;;;;4.03;1.93;;;;;;;17.19;55.18;100500.41;1764186;81;21493;-73
2022/09/01 02:48:12;;;;;;;4.27;1.70;;;;;;;17.19;55.70;100496.36;1763688;81;21692;-72
2022/09/01 02:50:41;;;;;;;8.57;2.47;;;;;;;17.18;55.58;100503.66;1764292;81;21544;-73
2022/09/01 02:53:14;;;;;;;3.33;2.00;;;;;;;17.18;55.58;100503.66;1763315;80;21417;-73
2022/09/01 02:55:40;;;;;;;3.93;2.27;;;;;;;17.15;56.17;100502.91;1764179;81;21594;-73
2022/09/01 02:58:15;;;;;;;5.17;2.10;;;;;;;17.13;56.44;100507.00;1763889;81;21460;-74
2022/09/01 03:00:38;;;;;;;4.33;2.00;;;;;;;17.13;56.44;100507.00;1749563;80;22037;-73
2022/09/01 03:03:06;;;;;;;3.73;2.30;;;;;;;17.10;57.10;100504.34;1763911;81;21355;-74
2022/09/01 03:05:34;;;;;;;4.37;2.10;;;;;;;17.10;57.10;100504.34;1764004;81;21374;-73
2022/09/01 03:08:06;;;;;;;6.30;3.27;;;;;;;17.08;57.08;100510.06;1764068;80;21916;-74
2022/09/01 03:10:38;;;;;;;4.30;2.35;;;;;;;17.06;57.27;100509.55;1764241;81;21412;-73
2022/09/01 03:13:10;;;;;;;3.23;2.00;;;;;;;17.04;57.58;100510.95;1764019;81;21438;-73
2022/09/01 03:15:37;;;;;;;4.03;2.13;;;;;;;17.00;57.67;100523.45;1764130;81;21598;-73
2022/09/01 03:18:06;;;;;;;3.60;2.30;;;;;;;17.00;57.67;100523.45;1763752;80;21928;-74
2022/09/01 03:20:34;;;;;;;4.47;1.87;;;;;;;16.98;58.16;100518.89;1761251;80;21654;-74
2022/09/01 03:23:03;;;;;;;4.57;2.10;;;;;;;16.96;57.99;100523.81;1758323;80;21510;-73
2022/09/01 03:25:31;;;;;;;4.20;2.20;;;;;;;16.92;58.21;100527.66;1762881;81;22016;-73
2022/09/01 03:28:00;;;;;;;4.13;2.13;;;;;;;16.91;58.13;100528.73;1763080;81;21970;-73
2022/09/01 03:30:29;;;;;;;4.23;2.17;;;;;;;16.90;58.29;100528.50;1761482;80;21445;-73
2022/09/01 03:32:56;;;;;;;3.80;2.10;;;;;;;16.88;58.50;100522.63;1762794;80;22022;-72
2022/09/01 03:35:25;;;;;;;4.13;2.10;;;;;;;16.89;58.70;100529.61;1760869;80;21542;-73
2022/09/01 03:37:57;;;;;;;3.33;2.10;;;;;;;16.89;58.92;100532.30;1759825;80;21421;-74
2022/09/01 03:40:26;;;;;;;5.63;2.07;;;;;;;16.82;59.26;100534.05;1757733;80;21980;-74
2022/09/01 03:42:54;;;;;;;4.43;2.40;;;;;;;16.82;59.26;100534.05;1758974;80;21669;-74
2022/09/01 03:45:24;;;;;;;5.13;2.33;;;;;;;16.86;59.28;100536.95;1760475;81;21496;-72
2022/09/01 03:47:53;;;;;;;4.03;2.33;;;;;;;16.86;59.28;100536.95;1760235;81;22160;-73
2022/09/01 03:50:22;;;;;;;4.30;2.10;;;;;;;16.87;59.37;100539.33;1762498;80;21512;-73
2022/09/01 03:52:53;;;;;;;4.90;2.20;;;;;;;16.96;59.69;100533.25;1760552;80;21388;-73
2022/09/01 03:55:25;;;;;;;4.87;2.20;;;;;;;16.96;59.69;100533.25;1760079;80;21558;-74
2022/09/01 03:57:54;;;;;;;6.20;2.50;;;;;;;17.06;59.48;100541.94;1759323;80;21693;-72
2022/09/01 04:00:23;;;;;;;5.57;2.40;;;;;;;17.06;59.48;100541.94;1760481;81;21615;-73
2022/09/01 04:02:56;;;;;;;3.43;1.90;;;;;;;17.11;59.22;100543.75;1734282;81;21437;-72
2022/09/01 04:05:23;;;;;;;5.00;2.10;;;;;;;17.16;58.97;100534.73;1759949;80;21753;-73
2022/09/01 04:07:51;;;;;;;4.70;2.10;;;;;;;17.28;57.97;100549.88;1760481;80;21724;-74
2022/09/01 04:10:18;;;;;;;5.13;2.00;;;;;;;17.31;57.31;100546.58;1760705;80;21771;-74
2022/09/01 04:12:45;;;;;;;4.63;1.90;;;;;;;17.35;57.18;100550.27;1760323;81;21556;-73
2022/09/01 04:15:13;;;;;;;3.67;1.60;;;;;;;17.35;57.18;100550.27;1760356;80;21507;-73
2022/09/01 04:20:25;;;;;;;3.43;1.90;;;;;;;17.41;56.48;100550.41;1760541;80;22184;-74
2022/09/01 04:22:52;;;;;;;4.33;2.00;;;;;;;17.46;55.79;100558.39;1718442;80;21784;-72
2022/09/01 04:25:22;;;;;;;3.93;1.70;;;;;;;17.49;55.61;100561.84;1759086;80;21776;-74
2022/09/01 04:27:52;;;;;;;5.30;2.03;;;;;;;17.54;55.38;100561.73;1758131;80;21705;-74
2022/09/01 04:30:25;;;;;;;2.98;1.70;;;;;;;17.61;55.29;100564.58;1762965;80;21715;-73
2022/09/01 04:32:55;;;;;;;3.55;2.00;;;;;;;17.68;55.14;100556.30;1761625;81;21043;-74
2022/09/01 04:35:26;;;;;;;3.40;1.93;;;;;;;17.75;54.76;100566.13;1760024;80;21030;-73
2022/09/01 04:37:49;;;;;;;5.57;1.87;;;;;;;17.81;54.44;100563.59;1756537;80;21746;-73
2022/09/01 04:40:17;;;;;;;3.47;2.03;;;;;;;17.88;54.40;100567.78;1757357;80;22325;-74
2022/09/01 04:42:44;;;;;;;3.73;2.00;;;;;;;17.98;54.31;100569.69;1759972;80;21731;-74
2022/09/01 04:45:12;;;;;;;2.77;1.70;;;;;;;18.08;53.83;100564.59;1760510;80;21736;-73
2022/09/01 04:47:44;;;;;;;4.72;1.98;;;;;;;18.20;53.36;100566.76;1760397;80;22019;-72
2022/09/01 04:50:15;;;;;;;4.57;1.80;;;;;;;18.28;52.91;100570.06;1761579;80;21188;-73
2022/09/01 04:53:04;;;;;;;4.97;2.10;;;;;;;18.50;52.35;100565.19;1759742;80;21715;-74
2022/09/01 04:55:32;;;;;;;4.13;2.00;;;;;;;18.50;52.35;100565.19;1734350;81;21930;-73
2022/09/01 04:58:00;;;;;;;3.43;2.00;;;;;;;18.60;52.21;100568.98;1757602;80;20991;-72
2022/09/01 05:00:31;;;;;;;4.17;2.10;;;;;;;18.68;52.00;100553.89;1759620;80;21015;-73
2022/09/01 05:03:03;;;;;;;4.87;2.00;;;;;;;18.74;51.83;100564.30;1709694;80;21086;-73
2022/09/01 05:05:45;;;;;;;5.67;1.97;;;;;;;18.84;51.60;100568.64;1756379;80;21422;-74
2022/09/01 05:08:19;;;;;;;3.97;1.87;;;;;;;18.86;50.87;100561.02;1758851;80;22177;-75
2022/09/01 05:10:51;;;;;;;4.50;2.10;;;;;;;18.91;50.75;100561.43;1759941;81;21030;-74
2022/09/01 05:13:22;;;;;;;4.80;2.30;;;;;;;18.94;50.74;100564.30;1757716;80;21027;-71
2022/09/01 05:16:04;;;;;;;7.17;2.67;;;;;;;18.95;50.79;100566.45;1759806;80;21100;-72
2022/09/01 05:18:31;;;;;;;5.80;2.30;;;;;;;18.96;50.42;100561.30;1697396;82;21117;-75
2022/09/01 05:21:09;;;;;;;5.67;2.27;;;;;;;18.96;50.16;100561.30;1762816;81;21879;-73
2022/09/01 05:23:39;;;;;;;7.30;2.40;;;;;;;18.95;50.23;100567.27;1763137;80;21565;-74
2022/09/01 05:26:16;;;;;;;5.63;2.20;;;;;;;18.95;50.43;100562.39;1760458;80;21039;-73
2022/09/01 05:28:48;;;;;;;4.87;2.30;;;;;;;18.98;50.65;100570.68;1760196;80;21124;-74
2022/09/01 05:31:18;;;;;;;4.47;2.20;;;;;;;19.01;50.54;100567.12;1756832;80;21486;-75
2022/09/01 05:33:48;;;;;;;4.77;2.27;;;;;;;19.05;50.59;100578.91;1733261;81;21622;-74
2022/09/01 05:36:18;;;;;;;3.70;1.97;;;;;;;19.09;50.12;100572.57;1761009;81;21050;-73
2022/09/01 05:38:46;;;;;;;6.70;2.30;;;;;;;19.12;50.26;100567.89;1759849;80;21046;-74
2022/09/01 05:41:15;;;;;;;4.37;2.30;;;;;;;19.20;49.90;100577.14;1761144;80;21023;-74
2022/09/01 05:43:47;;;;;;;5.55;2.20;;;;;;;19.26;49.61;100575.88;1761303;81;21116;-74
2022/09/01 05:46:15;;;;;;;5.83;2.42;;;;;;;19.33;49.28;100572.16;1760884;81;21141;-72
2022/09/01 05:48:44;;;;;;;4.55;2.00;;;;;;;19.45;49.25;100570.20;1760559;80;21062;-74
2022/09/01 05:51:13;;;;;;;3.97;1.80;;;;;;;19.55;48.87;100568.53;1733849;81;21021;-76
2022/09/01 05:53:40;;;;;;;5.83;2.17;;;;;;;19.64;48.48;100571.27;1760759;80;21085;-74
2022/09/01 05:56:08;;;;;;;5.83;2.43;;;;;;;19.73;48.46;100569.37;1763039;81;20964;-73
2022/09/01 05:58:35;;;;;;;6.17;2.70;;;;;;;19.80;48.11;100564.27;1763409;81;21133;-74
2022/09/01 06:01:02;;;;;;;9.20;2.93;;;;;;;19.87;47.88;100564.61;1760422;80;21020;-73
2022/09/01 06:03:30;;;;;;;10.23;3.00;;;;;;;19.90;47.28;100561.23;1760312;80;21066;-73
2022/09/01 06:06:08;;;;;;;7.30;2.57;;;;;;;19.95;46.88;100564.92;1760492;80;21061;-73
2022/09/01 06:08:35;;;;;;;6.23;2.50;;;;;;;19.97;46.68;100560.75;1758144;80;21803;-75
2022/09/01 06:11:11;;;;;;;5.70;2.60;;;;;;;20.00;46.75;100557.97;1760623;80;21155;-74
2022/09/01 06:13:34;;;;;;;6.53;2.70;;;;;;;20.01;46.80;100552.23;1758820;80;21039;-75
2022/09/01 06:16:02;;;;;;;5.90;2.80;;;;;;;20.05;45.97;100553.75;1762616;81;21050;-71
2022/09/01 06:18:33;;;;;;;8.67;3.30;;;;;;;20.05;45.58;100553.19;1762286;81;21391;-75
2022/09/01 06:20:59;;;;;;;5.83;3.10;;;;;;;20.05;45.66;100555.90;1761351;81;21099;-74
2022/09/01 06:23:25;;;;;;;6.50;2.80;;;;;;;20.13;44.15;100551.01;1759992;80;21471;-72
2022/09/01 06:25:52;;;;;;;6.33;2.57;;;;;;;20.20;44.10;100555.95;1760682;80;21057;-74
2022/09/01 06:28:22;;;;;;;6.80;2.60;;;;;;;20.27;43.91;100560.34;1763923;81;20999;-74
2022/09/01 06:30:50;;;;;;;3.93;2.47;;;;;;;20.34;44.24;100557.94;1764541;81;21465;-73
2022/09/01 06:33:18;;;;;;;3.80;2.00;;;;;;;20.43;43.97;100561.17;1763853;81;21562;-74
2022/09/01 06:35:46;;;;;;;3.90;2.17;;;;;;;20.53;43.12;100563.03;1764142;81;21279;-74
2022/09/01 06:38:16;;;;;;;3.83;1.90;;;;;;;20.60;42.57;100558.46;1763657;81;21011;-74
2022/09/01 06:40:45;;;;;;;5.37;2.50;;;;;;;20.66;42.88;100556.34;1763791;81;21043;-74
2022/09/01 06:43:15;;;;;;;3.33;1.87;;;;;;;20.73;43.08;100554.74;1757464;81;21503;-73
2022/09/01 06:45:53;;;;;;;3.52;1.98;;;;;;;20.80;42.95;100552.31;1757912;81;21561;-74
2022/09/01 06:48:14;;;;;;;4.40;2.07;;;;;;;20.84;42.59;100560.60;1759296;80;21677;-74
2022/09/01 06:50:42;;;;;;;5.43;2.13;;;;;;;20.85;42.49;100561.62;1762408;81;21565;-72
2022/09/01 06:53:10;;;;;;;4.23;1.93;;;;;;;20.92;42.69;100563.03;1761177;80;21561;-74
2022/09/01 06:55:37;;;;;;;5.23;2.10;;;;;;;20.95;42.95;100558.31;1760467;80;21031;-74
2022/09/01 06:58:06;;;;;;;4.37;2.10;;;;;;;20.96;42.91;100569.40;1761095;80;21259;-76
2022/09/01 07:00:41;;;;;;;6.10;2.30;;;;;;;20.99;43.06;100570.11;1757806;80;21125;-73
2022/09/01 07:03:12;;;;;;;5.47;2.53;;;;;;;21.06;42.93;100569.05;1759946;80;21073;-74
2022/09/01 07:05:51;;;;;;;6.40;2.40;;;;;;;21.14;42.99;100570.92;1756621;80;21066;-73
2022/09/01 07:08:20;;;;;;;8.57;2.80;;;;;;;21.24;42.83;100576.54;1703030;82;21415;-73
2022/09/01 07:10:52;;;;;;;4.93;2.60;;;;;;;21.33;42.38;100580.01;1748786;80;21062;-74
2022/09/01 07:13:22;;;;;;;5.07;3.10;;;;;;;21.45;42.46;100571.16;1754660;80;21114;-73
2022/09/01 07:15:51;;;;;;;5.37;2.80;;;;;;;21.54;42.04;100575.98;1754598;80;21576;-73
2022/09/01 07:18:23;;;;;;;4.23;2.60;;;;;;;21.70;41.52;100574.84;1703331;81;21066;-74
2022/09/01 07:20:52;;;;;;;9.43;3.03;;;;;;;21.83;41.43;100569.69;1752259;80;21073;-74
2022/09/01 07:23:20;;;;;;;4.90;2.97;;;;;;;22.02;41.33;100574.66;1755630;80;21091;-72
2022/09/01 07:25:48;;;;;;;6.37;2.90;;;;;;;22.15;41.01;100579.05;1754188;80;21122;-74
2022/09/01 07:28:23;;;;;;;5.37;2.87;;;;;;;22.21;41.16;100572.28;1749735;80;21372;-73
2022/09/01 07:30:56;;;;;;;5.47;2.10;;;;;;;22.35;40.91;100576.05;1756870;80;21588;-73
2022/09/01 07:33:22;;;;;;;3.47;1.93;;;;;;;22.44;39.10;100574.59;1754937;80;21105;-71
2022/09/01 07:35:54;;;;;;;2.90;1.70;;;;;;;22.42;38.48;100575.51;1758210;81;21073;-75
2022/09/01 07:38:23;;;;;;;3.47;1.93;;;;;;;22.41;37.84;100580.16;1758368;81;21159;-72
2022/09/01 07:40:52;;;;;;;4.00;1.50;;;;;;;22.47;37.71;100582.08;1756975;81;22024;-75
2022/09/01 07:43:26;;;;;;;4.43;1.30;;;;;;;22.58;37.29;100576.45;1719982;81;21133;-73
2022/09/01 07:46:11;;;;;;;3.40;1.90;;;;;;;22.73;36.87;100581.00;1758796;81;21058;-72
2022/09/01 07:48:38;;;;;;;4.13;1.73;;;;;;;22.90;35.73;100581.61;1758028;81;21165;-72
2022/09/01 07:51:05;;;;;;;5.20;1.87;;;;;;;23.02;35.03;100572.66;1755916;80;21150;-77
2022/09/01 07:53:34;;;;;;;3.93;1.50;;;;;;;23.04;34.94;100567.67;1755024;80;20992;-74
2022/09/01 07:56:08;;;;;;;3.17;1.50;;;;;;;23.03;33.82;100563.34;1726796;80;21119;-74
2022/09/01 07:58:39;;;;;;;4.07;1.50;;;;;;;23.05;33.58;100562.45;1754743;80;21144;-74
2022/09/01 08:01:10;;;;;;;3.03;1.33;;;;;;;23.16;33.56;100570.41;1727917;81;21020;-76
2022/09/01 08:03:39;;;;;;;4.03;1.40;;;;;;;23.24;32.86;100569.27;1753675;80;21180;-72
2022/09/01 08:06:09;;;;;;;3.77;1.27;;;;;;;23.27;31.93;100562.55;1754879;80;21459;-72
2022/09/01 08:08:38;;;;;;;2.90;1.30;;;;;;;23.29;31.97;100562.20;1754703;80;21089;-74
2022/09/01 08:11:06;;;;;;;4.27;1.30;;;;;;;23.27;32.31;100554.38;1755359;80;21047;-74
2022/09/01 08:13:37;;;;;;;4.73;1.50;;;;;;;23.23;33.07;100558.94;1720255;81;21150;-75
2022/09/01 08:16:06;;;;;;;3.95;1.32;;;;;;;23.17;33.46;100562.45;1755402;81;22030;-74
2022/09/01 08:18:34;;;;;;;2.10;1.10;;;;;;;23.13;33.04;100561.55;1753620;80;21033;-74
2022/09/01 08:21:07;;;;;;;4.47;1.67;;;;;;;23.06;33.21;100556.42;1754951;80;21090;-73
2022/09/01 08:23:38;;;;;;;2.93;1.27;;;;;;;23.00;32.74;100553.70;1751856;80;21082;-75
2022/09/01 08:26:08;;;;;;;2.17;1.33;;;;;;;22.85;33.14;100554.58;1751658;80;20992;-73
2022/09/01 08:28:35;;;;;;;3.27;1.30;;;;;;;22.92;33.41;100555.37;1751876;81;21785;-74
2022/09/01 08:31:12;;;;;;;2.23;1.10;;;;;;;23.03;33.94;100551.66;1754745;80;21498;-74
2022/09/01 08:33:40;;;;;;;5.00;1.37;;;;;;;23.13;32.87;100549.29;1755097;80;21133;-76
2022/09/01 08:36:09;;;;;;;2.83;1.23;;;;;;;23.13;32.29;100547.92;1754767;81;21012;-72
2022/09/01 08:38:38;;;;;;;4.57;2.10;;;;;;;23.11;32.58;100550.19;1753458;80;20972;-73
2022/09/01 08:41:20;;;;;;;3.50;1.50;;;;;;;23.18;32.73;100543.59;1750475;81;21132;-72
2022/09/01 08:43:59;;;;;;;3.57;1.90;;;;;;;23.27;32.50;100548.93;1742495;82;21031;-74
2022/09/01 08:46:34;;;;;;;4.17;2.07;;;;;;;23.32;32.15;100548.67;1748065;81;21066;-75
2022/09/01 08:49:15;;;;;;;4.20;2.10;;;;;;;23.29;31.90;100544.48;1751854;82;21024;-74
2022/09/01 08:52:11;;;;;;;4.93;2.20;;;;;;;23.26;32.75;100549.26;1748078;82;21455;-75
2022/09/01 08:54:56;;;;;;;4.07;2.23;;;;;;;23.32;32.38;100545.16;1756315;80;21147;-73
2022/09/01 08:57:35;;;;;;;7.07;2.53;;;;;;;23.32;32.61;100545.16;1757410;81;21498;-75
2022/09/01 09:00:10;;;;;;;5.97;2.47;;;;;;;23.26;32.44;100537.78;1717622;81;21490;-73
2022/09/01 09:03:14;;;;;;;6.47;2.33;;;;;;;23.14;33.00;100544.05;1757988;81;21050;-72
2022/09/01 09:05:52;;;;;;;6.03;2.70;;;;;;;23.07;33.76;100543.05;1728337;83;21070;-72
2022/09/01 09:09:03;;;;;;;5.73;3.10;;;;;;;22.96;33.16;100548.71;1728468;81;23030;-73
2022/09/01 09:12:09;;;;;;;5.93;3.13;;;;;;;22.89;33.12;100543.80;1757769;81;21077;-73
2022/09/01 09:15:08;;;;;;;7.77;3.37;;;;;;;22.85;32.80;100545.63;1758515;81;20963;-72
2022/09/01 09:17:40;;;;;;;5.23;3.13;;;;;;;22.96;33.64;100546.78;1758156;81;21011;-74
2022/09/01 09:20:07;;;;;;;5.80;2.90;;;;;;;23.15;32.29;100539.39;1759285;81;21885;-73
2022/09/01 09:22:34;;;;;;;5.87;3.33;;;;;;;23.28;32.44;100545.63;1759100;81;21232;-73
2022/09/01 09:25:13;;;;;;;7.33;3.07;;;;;;;23.34;31.79;100536.09;1758880;81;21069;-75
2022/09/01 09:27:43;;;;;;;6.83;3.63;;;;;;;23.40;32.21;100542.89;1725948;80;21000;-75
2022/09/01 09:30:26;;;;;;;7.15;3.77;;;;;;;23.36;31.93;100545.52;1757518;81;21514;-74
2022/09/01 09:32:59;;;;;;;;;;;;;;;23.18;32.17;100546.31;1761097;81;21576;-74
2022/09/01 09:35:35;;;;;;;6.77;3.90;;;;;;;23.18;32.64;100541.44;1758696;81;21151;-74
2022/09/01 09:38:21;;;;;;;7.90;4.40;;;;;;;23.30;32.00;100539.28;1750077;81;21620;-74
2022/09/01 09:41:09;;;;;;;10.93;4.90;;;;;;;23.57;32.02;100541.25;1758845;81;20967;-73
2022/09/01 09:43:57;;;;;;;9.30;5.00;;;;;;;23.85;30.96;100533.69;1757549;81;21105;-74
2022/09/01 09:46:43;;;;;;;9.67;5.63;;;;;;;24.13;31.47;100528.80;1735845;81;21062;-75
2022/09/01 09:49:25;;;;;;;10.33;5.60;;;;;;;24.31;29.87;100539.02;1758622;81;21225;-71
2022/09/01 09:52:15;;;;;;;10.10;6.47;;;;;;;24.34;29.98;100525.25;1758485;81;20951;-74
2022/09/01 09:55:00;;;;;;;11.30;7.50;;;;;;;24.25;29.99;100526.80;1750463;81;20988;-72
2022/09/01 09:57:27;;;;;;;14.03;7.67;;;;;;;24.28;29.82;100530.20;1750738;82;21028;-73
2022/09/01 10:00:06;;;;;;;14.10;8.40;;;;;;;24.34;29.64;100536.17;1751787;81;21011;-72
2022/09/01 10:02:42;;;;;;;13.07;9.30;;;;;;;24.28;29.28;100532.11;1753466;80;21149;-73
2022/09/01 10:05:41;;;;;;;16.93;12.80;;;;;;;24.04;30.57;100533.83;1755282;81;21617;-74
2022/09/01 10:08:13;;;;;;;20.83;15.30;;;;;;;24.00;30.88;100532.95;1752562;80;21055;-73
2022/09/01 10:10:45;;;;;;;18.53;14.30;;;;;;;23.98;30.36;100539.31;1755588;80;21537;-74
2022/09/01 10:13:20;;;;;;;27.33;20.20;;;;;;;23.95;30.40;100532.39;1754666;80;20972;-74
2022/09/01 10:15:52;;;;;;;31.73;24.03;;;;;;;23.90;30.63;100534.02;1755324;80;21159;-75
2022/09/01 10:18:23;;;;;;;36.37;27.13;;;;;;;23.86;30.86;100527.89;1755909;81;21163;-72
2022/09/01 10:21:17;;;;;;;40.10;30.43;;;;;;;23.79;31.10;100534.52;1758987;81;21557;-73
2022/09/01 10:23:47;;;;;;;40.23;33.23;;;;;;;23.65;31.41;100538.95;1734124;80;21035;-72
2022/09/01 10:26:28;;;;;;;44.63;33.57;;;;;;;23.62;30.74;100536.91;1729031;81;21149;-72
2022/09/01 10:28:59;;;;;;;49.00;38.07;;;;;;;23.65;30.63;100534.85;1757697;81;21557;-73
2022/09/01 10:31:26;;;;;;;;;;;;;;;23.75;30.33;100533.60;1759847;81;21601;-74
2022/09/01 10:33:53;;;;;;;51.50;39.27;;;;;;;23.82;31.09;100531.10;1758133;81;20138;-74
2022/09/01 10:36:21;;;;;;;51.60;40.47;;;;;;;23.84;31.13;100536.98;1758810;81;21011;-75
2022/09/01 10:38:47;;;;;;;54.07;40.73;;;;;;;23.77;30.93;100531.33;1758549;81;21046;-76
2022/09/01 10:41:49;;;;;;;53.20;40.97;;;;;;;23.69;30.92;100528.73;1758655;81;21223;-73
2022/09/01 10:44:34;;;;;;;56.87;44.00;;;;;;;23.69;30.43;100528.20;1758237;81;20956;-74
2022/09/01 10:47:32;;;;;;;53.87;41.80;;;;;;;23.65;31.30;100523.95;1758814;81;21048;-74
2022/09/01 10:50:06;;;;;;;49.70;39.07;;;;;;;23.73;30.47;100521.48;1758338;81;21526;-74
2022/09/01 10:52:48;;;;;;;52.03;40.03;;;;;;;23.89;30.77;100516.87;1752463;81;21141;-73
2022/09/01 10:55:25;;;;;;;48.13;36.35;;;;;;;24.09;30.18;100520.52;1757413;81;21539;-74
2022/09/01 10:58:21;;;;;;;43.83;33.53;;;;;;;24.24;30.99;100514.85;1756800;81;21478;-72
2022/09/01 11:00:50;;;;;;;49.43;36.60;;;;;;;24.34;30.79;100524.67;1755326;80;21054;-75
2022/09/01 11:03:23;;;;;;;47.97;35.07;;;;;;;24.29;30.28;100524.95;1755063;80;21000;-75
2022/09/01 11:05:59;;;;;;;32.23;23.60;;;;;;;24.16;30.86;100513.88;1755124;81;21082;-73
2022/09/01 11:08:33;;;;;;;26.63;20.10;;;;;;;24.12;30.64;100517.09;1754372;80;21920;-71
2022/09/01 11:11:23;;;;;;;25.33;17.60;;;;;;;24.04;30.24;100518.03;1754095;80;21477;-73
2022/09/01 11:13:54;;;;;;;14.57;10.73;;;;;;;23.96;30.88;100513.54;1758521;81;21050;-73
2022/09/01 11:16:38;;;;;;;15.83;9.08;;;;;;;23.87;30.13;100507.66;1756858;80;21034;-71
2022/09/01 11:19:36;;;;;;;10.63;6.47;;;;;;;23.86;30.12;100497.89;1755612;81;20997;-73
2022/09/01 11:22:14;;;;;;;6.17;2.60;;;;;;;23.95;31.15;100497.72;1755966;80;21911;-74
2022/09/01 11:24:46;;;;;;;4.27;2.30;;;;;;;24.21;30.58;100495.08;1758579;81;21043;-74
2022/09/01 11:27:50;;;;;;;3.20;1.90;;;;;;;24.44;30.12;100490.63;1758416;81;21002;-73
2022/09/01 11:30:21;;;;;;;6.40;1.90;;;;;;;24.59;29.79;100495.09;1754543;81;21502;-74
2022/09/01 11:32:54;;;;;;;4.93;1.90;;;;;;;24.64;28.96;100483.89;1754427;80;20940;-72
2022/09/01 11:35:23;;;;;;;15.77;11.30;;;;;;;24.61;29.06;100489.48;1752921;80;21596;-73
2022/09/01 11:37:54;;;;;;;16.83;11.23;;;;;;;24.54;29.44;100491.47;1758063;80;21038;-74
2022/09/01 11:40:25;;;;;;;14.98;10.50;;;;;;;24.52;29.49;100495.14;1757228;81;21064;-74
2022/09/01 11:42:52;;;;;;;14.37;11.17;;;;;;;24.53;29.31;100500.02;1757095;81;21146;-73
2022/09/01 11:45:23;;;;;;;12.70;9.57;;;;;;;24.48;29.11;100488.80;1757756;81;21067;-72
2022/09/01 11:48:08;;;;;;;11.73;9.48;;;;;;;24.42;29.17;100487.48;1758322;81;21282;-73
2022/09/01 11:50:38;;;;;;;13.30;9.50;;;;;;;24.34;29.63;100487.03;1758631;81;21419;-74
2022/09/01 11:53:12;;;;;;;10.57;7.53;;;;;;;24.25;30.26;100490.50;1757216;81;21061;-72